createdAt,value
2022-09-14T00:01:33.119Z,12.65
2022-09-14T00:04:06.188Z,12.38
2022-09-14T00:06:35.890Z,12.20
2022-09-14T00:09:06.873Z,12.57
2022-09-14T00:11:36.200Z,12.88
2022-09-14T00:14:04.125Z,12.35
2022-09-14T00:16:37.405Z,12.45
2022-09-14T00:19:07.302Z,13.17
2022-09-14T00:21:37.223Z,12.35
2022-09-14T00:24:06.240Z,11.18
2022-09-14T00:26:33.410Z,10.85
2022-09-14T00:29:04.866Z,12.60
2022-09-14T00:31:34.931Z,12.10
2022-09-14T00:34:03.334Z,12.30
2022-09-14T00:36:31.823Z,11.02
2022-09-14T00:39:00.937Z,11.32
2022-09-14T00:41:32.047Z,10.50
2022-09-14T00:43:59.142Z,11.45
2022-09-14T00:46:29.142Z,10.73
2022-09-14T00:49:00.173Z,9.77
2022-09-14T00:51:29.996Z,10.80
2022-09-14T00:53:57.547Z,10.23
2022-09-14T00:56:25.116Z,9.18
2022-09-14T00:58:55.198Z,10.32
2022-09-14T01:01:22.556Z,9.43
2022-09-14T01:03:49.882Z,10.13
2022-09-14T01:06:16.887Z,9.82
2022-09-14T01:08:53.761Z,9.88
2022-09-14T01:11:25.460Z,10.05
2022-09-14T01:13:58.327Z,10.02
2022-09-14T01:16:44.609Z,9.88
2022-09-14T01:19:22.772Z,10.00
2022-09-14T01:21:51.608Z,10.48
2022-09-14T01:24:26.813Z,9.70
2022-09-14T01:27:18.436Z,9.60
2022-09-14T01:29:58.227Z,9.57
2022-09-14T01:32:51.245Z,9.27
2022-09-14T01:35:24.092Z,9.98
2022-09-14T01:37:57.712Z,10.25
2022-09-14T01:40:36.823Z,9.73
2022-09-14T01:43:14.210Z,9.80
2022-09-14T01:45:48.678Z,9.88
2022-09-14T01:48:20.010Z,9.32
2022-09-14T01:50:52.369Z,9.38
2022-09-14T01:53:38.651Z,9.95
2022-09-14T01:56:15.298Z,10.05
2022-09-14T01:59:02.851Z,9.57
2022-09-14T02:01:41.438Z,10.23
2022-09-14T02:04:13.358Z,9.52
2022-09-14T02:06:47.993Z,11.00
2022-09-14T02:09:22.380Z,10.20
2022-09-14T02:11:49.732Z,9.43
2022-09-14T02:14:16.932Z,10.70
2022-09-14T02:16:46.451Z,11.68
2022-09-14T02:19:14.123Z,10.35
2022-09-14T02:21:41.302Z,10.05
2022-09-14T02:24:09.503Z,9.75
2022-09-14T02:26:37.010Z,10.75
2022-09-14T02:29:04.511Z,10.65
2022-09-14T02:31:40.965Z,9.52
2022-09-14T02:34:07.990Z,10.80
2022-09-14T02:36:53.903Z,10.20
2022-09-14T02:39:33.415Z,10.13
2022-09-14T02:42:15.345Z,10.02
2022-09-14T02:44:54.752Z,10.52
2022-09-14T02:47:28.690Z,9.73
2022-09-14T02:50:04.013Z,9.85
2022-09-14T02:52:59.177Z,9.75
2022-09-14T02:55:31.041Z,10.23
2022-09-14T02:58:09.780Z,9.93
2022-09-14T03:00:43.144Z,9.82
2022-09-14T03:03:12.731Z,9.75
2022-09-14T03:05:40.122Z,9.93
2022-09-14T03:08:08.763Z,10.20
2022-09-14T03:10:35.926Z,10.50
2022-09-14T03:13:03.302Z,9.98
2022-09-14T03:15:30.844Z,10.90
2022-09-14T03:17:58.054Z,11.68
2022-09-14T03:20:28.427Z,10.75
2022-09-14T03:22:55.928Z,10.38
2022-09-14T03:25:25.710Z,10.75
2022-09-14T03:27:59.090Z,9.82
2022-09-14T03:30:27.992Z,11.43
2022-09-14T03:32:55.224Z,11.23
2022-09-14T03:35:22.295Z,12.20
2022-09-14T03:37:49.348Z,10.82
2022-09-14T03:40:21.668Z,10.23
2022-09-14T03:42:51.397Z,11.38
2022-09-14T03:45:19.924Z,12.55
2022-09-14T03:47:47.471Z,11.85
2022-09-14T03:50:16.565Z,10.80
2022-09-14T03:52:43.688Z,12.15
2022-09-14T03:55:11.704Z,11.48
2022-09-14T03:57:39.080Z,11.88
2022-09-14T04:00:07.416Z,11.98
2022-09-14T04:02:40.957Z,11.55
2022-09-14T04:05:08.501Z,10.32
2022-09-14T04:07:36.009Z,11.52
2022-09-14T04:10:04.334Z,12.52
2022-09-14T04:12:37.955Z,12.57
2022-09-14T04:15:06.874Z,12.15
2022-09-14T04:17:34.660Z,12.95
2022-09-14T04:20:01.808Z,13.07
2022-09-14T04:22:28.933Z,14.57
2022-09-14T04:24:55.975Z,13.68
2022-09-14T04:27:23.582Z,12.23
2022-09-14T04:29:51.093Z,12.85
2022-09-14T04:32:18.143Z,13.32
2022-09-14T04:34:45.238Z,14.65
2022-09-14T04:37:12.233Z,14.23
2022-09-14T04:39:39.276Z,12.98
2022-09-14T04:42:06.914Z,12.27
2022-09-14T04:44:34.099Z,12.82
2022-09-14T04:47:01.245Z,13.57
2022-09-14T04:49:28.339Z,14.15
2022-09-14T04:51:55.368Z,13.13
2022-09-14T04:54:22.400Z,13.52
2022-09-14T04:56:49.443Z,13.57
2022-09-14T04:59:16.564Z,15.68
2022-09-14T05:01:45.892Z,13.20
2022-09-14T05:04:13.189Z,13.55
2022-09-14T05:06:41.928Z,13.18
2022-09-14T05:09:16.244Z,13.48
2022-09-14T05:11:45.210Z,13.18
2022-09-14T05:14:13.817Z,12.27
2022-09-14T05:16:42.301Z,13.02
2022-09-14T05:19:13.078Z,13.25
2022-09-14T05:21:42.068Z,13.80
2022-09-14T05:24:18.398Z,14.30
2022-09-14T05:26:46.772Z,13.57
2022-09-14T05:29:18.233Z,13.32
2022-09-14T05:31:45.990Z,14.52
2022-09-14T05:34:13.552Z,14.57
2022-09-14T05:36:41.152Z,14.02
2022-09-14T05:39:09.144Z,12.68
2022-09-14T05:41:37.566Z,13.25
2022-09-14T05:44:05.607Z,13.00
2022-09-14T05:46:32.954Z,13.98
2022-09-14T05:49:00.266Z,13.80
2022-09-14T05:51:28.295Z,14.15
2022-09-14T05:53:58.400Z,14.05
2022-09-14T05:56:27.938Z,13.95
2022-09-14T05:58:55.734Z,13.60
2022-09-14T06:01:29.295Z,13.77
2022-09-14T06:03:58.176Z,12.68
2022-09-14T06:06:25.374Z,13.82
2022-09-14T06:08:54.285Z,12.88
2022-09-14T06:11:28.674Z,13.80
2022-09-14T06:13:56.512Z,14.30
2022-09-14T06:16:26.079Z,15.32
2022-09-14T06:18:55.843Z,14.48
2022-09-14T06:21:23.422Z,13.18
2022-09-14T06:23:52.081Z,15.05
2022-09-14T06:26:19.216Z,15.90
2022-09-14T06:28:46.348Z,17.27
2022-09-14T06:31:15.278Z,15.45
2022-09-14T06:33:46.043Z,16.08
2022-09-14T06:36:15.564Z,14.95
2022-09-14T06:38:43.212Z,15.70
2022-09-14T06:41:13.159Z,13.98
2022-09-14T06:43:42.048Z,15.57
2022-09-14T06:46:19.277Z,14.50
2022-09-14T06:48:49.180Z,15.98
2022-09-14T06:51:24.294Z,13.50
2022-09-14T06:53:52.477Z,15.63
2022-09-14T06:56:21.800Z,15.50
2022-09-14T06:58:50.720Z,15.25
2022-09-14T07:01:20.005Z,15.93
2022-09-14T07:03:48.196Z,14.90
2022-09-14T07:06:17.999Z,15.27
2022-09-14T07:08:49.405Z,14.30
2022-09-14T07:11:18.438Z,14.13
2022-09-14T07:13:46.440Z,14.55
2022-09-14T07:16:14.982Z,13.82
2022-09-14T07:18:42.524Z,12.93
2022-09-14T07:21:12.154Z,13.48
2022-09-14T07:23:41.955Z,13.73
2022-09-14T07:26:21.188Z,13.85
2022-09-14T07:28:54.170Z,13.02
2022-09-14T07:31:27.386Z,13.05
2022-09-14T07:33:57.036Z,12.93
2022-09-14T07:36:25.404Z,12.20
2022-09-14T07:38:53.664Z,13.20
2022-09-14T07:41:22.625Z,12.30
2022-09-14T07:43:51.563Z,11.20
2022-09-14T07:46:19.930Z,9.98
2022-09-14T07:48:47.794Z,11.02
2022-09-14T07:51:15.731Z,11.77
2022-09-14T07:53:43.611Z,11.30
2022-09-14T07:56:12.467Z,10.10
2022-09-14T07:58:39.733Z,10.27
2022-09-14T08:01:09.484Z,10.25
2022-09-14T08:03:36.715Z,11.18
2022-09-14T08:06:09.139Z,10.70
2022-09-14T08:08:38.742Z,10.15
2022-09-14T08:11:07.031Z,9.88
2022-09-14T08:13:37.010Z,11.48
2022-09-14T08:16:05.093Z,10.18
2022-09-14T08:18:33.502Z,13.70
2022-09-14T08:21:09.942Z,9.90
2022-09-14T08:23:37.768Z,9.77
2022-09-14T08:26:06.997Z,10.68
2022-09-14T08:28:36.457Z,9.98
2022-09-14T08:31:04.339Z,10.27
2022-09-14T08:33:36.012Z,9.00
2022-09-14T08:36:03.573Z,8.80
2022-09-14T08:38:30.859Z,9.07
2022-09-14T08:41:05.462Z,9.02
2022-09-14T08:43:33.006Z,9.75
2022-09-14T08:46:05.942Z,9.52
2022-09-14T08:48:47.570Z,9.68
2022-09-14T08:51:17.123Z,10.57
2022-09-14T08:53:45.387Z,9.85
2022-09-14T08:56:25.650Z,9.98
2022-09-14T08:59:12.898Z,11.55
2022-09-14T09:02:04.414Z,9.98
2022-09-14T09:04:34.426Z,10.65
2022-09-14T09:07:20.793Z,10.18
2022-09-14T09:09:51.057Z,9.13
2022-09-14T09:12:22.033Z,9.77
2022-09-14T09:14:54.650Z,9.30
2022-09-14T09:17:40.089Z,10.23
2022-09-14T09:20:23.677Z,9.07
2022-09-14T09:23:03.049Z,9.63
2022-09-14T09:25:59.145Z,9.95
2022-09-14T09:28:28.638Z,10.82
2022-09-14T09:30:59.268Z,9.27
2022-09-14T09:33:39.287Z,8.67
2022-09-14T09:36:16.358Z,10.32
2022-09-14T09:38:44.764Z,10.88
2022-09-14T09:41:24.593Z,10.10
2022-09-14T09:44:09.533Z,9.77
2022-09-14T09:46:38.779Z,9.65
2022-09-14T09:49:29.644Z,10.52
2022-09-14T09:51:57.311Z,10.05
2022-09-14T09:54:26.787Z,10.38
2022-09-14T09:57:05.889Z,8.85
2022-09-14T09:59:41.871Z,10.20
2022-09-14T10:02:21.072Z,9.93
2022-09-14T10:05:05.621Z,9.65
2022-09-14T10:07:35.656Z,10.55
2022-09-14T10:10:09.727Z,9.82
2022-09-14T10:15:25.915Z,8.57
2022-09-14T10:18:10.993Z,10.70
2022-09-14T10:20:40.755Z,8.98
2022-09-14T10:23:20.053Z,8.90
2022-09-14T10:25:49.436Z,8.95
2022-09-14T10:28:22.785Z,9.73
2022-09-14T10:31:00.921Z,7.97
2022-09-14T10:33:28.933Z,8.30
2022-09-14T10:36:23.701Z,7.72
2022-09-14T10:39:01.284Z,8.38
2022-09-14T10:42:18.620Z,7.35
2022-09-14T10:45:06.908Z,8.05
2022-09-14T10:47:51.521Z,9.07
2022-09-14T10:50:33.513Z,8.15
2022-09-14T10:53:23.377Z,7.65
2022-09-14T10:56:10.236Z,7.03
2022-09-14T10:58:43.219Z,6.78
2022-09-14T11:01:31.174Z,6.72
2022-09-14T11:04:19.525Z,7.18
2022-09-14T11:07:10.251Z,7.85
2022-09-14T11:09:57.393Z,7.15
2022-09-14T11:12:35.299Z,7.05
2022-09-14T11:15:21.449Z,7.85
2022-09-14T11:17:57.248Z,7.38
2022-09-14T11:20:55.916Z,8.23
2022-09-14T11:23:36.018Z,8.25
2022-09-14T11:26:23.701Z,7.22
2022-09-14T11:29:00.450Z,8.07
2022-09-14T11:32:20.327Z,6.93
2022-09-14T11:35:03.489Z,6.00
2022-09-14T11:37:46.980Z,7.18
2022-09-14T11:40:37.156Z,6.63
2022-09-14T11:43:19.179Z,7.97
2022-09-14T11:45:56.102Z,6.07
2022-09-14T11:48:42.714Z,7.47
2022-09-14T11:51:19.414Z,7.88
2022-09-14T11:53:47.472Z,7.30
2022-09-14T11:56:32.374Z,8.45
2022-09-14T11:59:06.348Z,7.35
2022-09-14T12:04:11.722Z,7.65
2022-09-14T12:06:38.838Z,6.97
2022-09-14T12:09:20.159Z,8.73
2022-09-14T12:11:51.323Z,8.63
2022-09-14T12:14:24.464Z,7.63
2022-09-14T12:17:35.631Z,7.93
2022-09-14T12:20:24.507Z,7.93
2022-09-14T12:22:51.665Z,7.45
2022-09-14T12:25:22.810Z,7.53
2022-09-14T12:27:50.721Z,8.57
2022-09-14T12:30:40.953Z,9.95
2022-09-14T12:33:33.485Z,8.40
2022-09-14T12:36:31.070Z,9.63
2022-09-14T12:38:58.120Z,8.55
2022-09-14T12:41:25.106Z,7.60
2022-09-14T12:43:52.193Z,7.88
2022-09-14T12:46:22.615Z,11.15
2022-09-14T12:48:58.694Z,9.93
2022-09-14T12:51:36.170Z,9.70
2022-09-14T12:54:09.164Z,9.27
2022-09-14T12:56:48.407Z,8.20
2022-09-14T12:59:41.386Z,9.63
2022-09-14T13:02:26.673Z,8.55
2022-09-14T13:04:56.747Z,9.52
2022-09-14T13:07:30.140Z,10.20
2022-09-14T13:09:58.493Z,8.95
2022-09-14T13:12:38.977Z,9.48
2022-09-14T13:15:10.291Z,9.15
2022-09-14T13:17:37.497Z,9.55
2022-09-14T13:20:15.797Z,9.57
2022-09-14T13:22:43.116Z,10.32
2022-09-14T13:25:34.141Z,10.73
2022-09-14T13:28:07.782Z,11.02
2022-09-14T13:30:36.107Z,10.57
2022-09-14T13:33:04.287Z,10.85
2022-09-14T13:35:47.952Z,9.45
2022-09-14T13:38:23.673Z,10.25
2022-09-14T13:40:54.298Z,10.23
2022-09-14T13:43:22.760Z,9.90
2022-09-14T13:45:51.649Z,10.25
2022-09-14T13:48:20.299Z,11.30
2022-09-14T13:50:52.340Z,10.63
2022-09-14T13:53:43.625Z,9.50
2022-09-14T13:56:22.702Z,10.20
2022-09-14T13:59:11.298Z,9.10
2022-09-14T14:01:41.114Z,8.57
2022-09-14T14:04:47.799Z,9.18
2022-09-14T14:07:26.429Z,9.95
2022-09-14T14:09:56.585Z,9.73
2022-09-14T14:12:27.885Z,10.05
2022-09-14T14:14:59.359Z,9.85
2022-09-14T14:17:37.012Z,11.30
2022-09-14T14:20:29.953Z,10.90
2022-09-14T14:23:02.501Z,10.70
2022-09-14T14:25:47.733Z,10.23
2022-09-14T14:28:18.000Z,10.40
2022-09-14T14:30:45.620Z,10.20
2022-09-14T14:33:14.181Z,10.38
2022-09-14T14:35:41.997Z,11.68
2022-09-14T14:38:09.726Z,10.57
2022-09-14T14:40:37.988Z,9.93
2022-09-14T14:43:05.995Z,10.52
2022-09-14T14:45:36.343Z,10.85
2022-09-14T14:48:04.123Z,9.80
2022-09-14T14:50:34.156Z,9.63
2022-09-14T14:53:02.262Z,9.97
2022-09-14T14:55:31.917Z,10.18
2022-09-14T14:58:04.998Z,9.57
2022-09-14T15:00:34.925Z,9.87
2022-09-14T15:03:02.480Z,9.25
2022-09-14T15:05:29.665Z,9.95
2022-09-14T15:07:56.917Z,9.73
2022-09-14T15:10:26.047Z,10.45
2022-09-14T15:12:53.311Z,10.27
2022-09-14T15:15:24.052Z,9.25
2022-09-14T15:17:51.794Z,9.38
2022-09-14T15:20:20.097Z,9.65
2022-09-14T15:22:48.318Z,9.20
2022-09-14T15:25:16.574Z,9.32
2022-09-14T15:27:43.683Z,9.68
2022-09-14T15:30:12.147Z,9.65
2022-09-14T15:32:39.657Z,9.65
2022-09-14T15:35:10.037Z,9.30
2022-09-14T15:37:37.185Z,9.90
2022-09-14T15:40:05.434Z,9.93
2022-09-14T15:42:32.599Z,9.40
2022-09-14T15:44:59.664Z,9.57
2022-09-14T15:47:26.754Z,9.63
2022-09-14T15:49:54.128Z,8.77
2022-09-14T15:52:21.186Z,9.10
2022-09-14T15:54:49.353Z,8.27
2022-09-14T15:57:16.556Z,9.73
2022-09-14T15:59:43.948Z,9.52
2022-09-14T16:02:12.483Z,10.02
2022-09-14T16:04:40.015Z,9.43
2022-09-14T16:07:11.471Z,10.60
2022-09-14T16:09:39.979Z,9.73
2022-09-14T16:12:09.055Z,10.07
2022-09-14T16:14:36.296Z,10.02
2022-09-14T16:17:03.674Z,11.48
2022-09-14T16:19:30.736Z,10.68
2022-09-14T16:21:58.044Z,10.70
2022-09-14T16:24:25.968Z,10.95
2022-09-14T16:26:53.673Z,10.07
2022-09-14T16:29:22.175Z,10.63
2022-09-14T16:31:49.838Z,10.43
2022-09-14T16:34:28.774Z,9.38
2022-09-14T16:36:58.759Z,11.35
2022-09-14T16:39:29.521Z,10.73
2022-09-14T16:41:57.405Z,9.63
2022-09-14T16:44:26.274Z,9.68
2022-09-14T16:46:55.038Z,9.88
2022-09-14T16:49:26.534Z,9.88
2022-09-14T16:51:54.983Z,9.70
2022-09-14T16:54:23.432Z,9.95
2022-09-14T16:56:50.925Z,8.77
2022-09-14T16:59:19.464Z,9.95
2022-09-14T17:01:51.924Z,10.70
2022-09-14T17:04:22.196Z,9.40
2022-09-14T17:06:50.673Z,10.85
2022-09-14T17:09:26.509Z,11.23
2022-09-14T17:11:54.393Z,12.18
2022-09-14T17:14:28.467Z,12.10
2022-09-14T17:16:56.006Z,13.07
2022-09-14T17:19:23.266Z,13.85
2022-09-14T17:21:50.719Z,14.48
2022-09-14T17:24:19.242Z,12.68
2022-09-14T17:26:46.949Z,11.63
2022-09-14T17:29:14.602Z,10.77
2022-09-14T17:31:43.488Z,11.05
2022-09-14T17:34:12.910Z,14.30
2022-09-14T17:36:40.961Z,16.33
2022-09-14T17:39:12.056Z,16.15
2022-09-14T17:41:40.760Z,12.20
2022-09-14T17:44:10.507Z,13.13
2022-09-14T17:46:45.934Z,12.90
2022-09-14T17:49:18.582Z,13.38
2022-09-14T17:51:45.622Z,10.82
2022-09-14T17:54:13.268Z,12.18
2022-09-14T17:56:40.733Z,10.10
2022-09-14T17:59:13.009Z,11.43
2022-09-14T18:01:40.592Z,12.10
2022-09-14T18:04:10.792Z,12.00
2022-09-14T18:06:48.523Z,10.45
2022-09-14T18:09:18.590Z,11.25
2022-09-14T18:11:45.813Z,10.38
2022-09-14T18:14:14.509Z,10.73
2022-09-14T18:16:43.255Z,11.15
2022-09-14T18:19:10.582Z,11.25
2022-09-14T18:21:37.798Z,11.73
2022-09-14T18:24:05.566Z,10.38
2022-09-14T18:26:32.743Z,11.18
2022-09-14T18:28:59.868Z,10.80
2022-09-14T18:31:27.624Z,10.70
2022-09-14T18:33:59.384Z,12.52
2022-09-14T18:36:29.303Z,10.73
2022-09-14T18:38:57.919Z,12.05
2022-09-14T18:41:25.088Z,12.18
2022-09-14T18:43:53.389Z,12.63
2022-09-14T18:46:25.754Z,10.85
2022-09-14T18:48:56.883Z,10.48
2022-09-14T18:51:24.222Z,11.32
2022-09-14T18:54:01.268Z,11.13
2022-09-14T18:56:29.242Z,11.73
2022-09-14T18:58:56.749Z,13.27
2022-09-14T19:01:23.983Z,14.90
2022-09-14T19:03:51.260Z,13.25
2022-09-14T19:06:19.142Z,11.77
2022-09-14T19:08:46.844Z,13.93
2022-09-14T19:11:16.885Z,12.38
2022-09-14T19:13:45.109Z,12.75
2022-09-14T19:16:18.059Z,12.32
2022-09-14T19:18:47.254Z,14.45
2022-09-14T19:21:18.249Z,11.68
2022-09-14T19:23:48.830Z,12.07
2022-09-14T19:26:22.841Z,14.20
2022-09-14T19:31:21.321Z,11.95
2022-09-14T19:33:48.923Z,12.52
2022-09-14T19:36:19.947Z,13.63
2022-09-14T19:38:48.094Z,12.77
2022-09-14T19:41:16.231Z,12.68
2022-09-14T19:43:43.492Z,11.70
2022-09-14T19:46:19.214Z,11.90
2022-09-14T19:48:50.503Z,13.52
2022-09-14T19:51:21.526Z,13.02
2022-09-14T19:53:50.223Z,15.15
2022-09-14T19:56:19.804Z,14.95
2022-09-14T19:58:50.938Z,12.52
2022-09-14T20:01:20.318Z,15.07
2022-09-14T20:03:48.473Z,13.50
2022-09-14T20:06:19.625Z,13.10
2022-09-14T20:08:48.160Z,13.15
2022-09-14T20:11:19.925Z,13.65
2022-09-14T20:13:50.473Z,13.68
2022-09-14T20:16:19.164Z,18.33
2022-09-14T20:18:48.130Z,16.30
2022-09-14T20:21:19.077Z,16.60
2022-09-14T20:24:11.534Z,16.38
2022-09-14T20:26:36.466Z,16.05
2022-09-14T20:29:04.087Z,16.33
2022-09-14T20:31:31.769Z,16.95
2022-09-14T20:34:24.439Z,17.30
2022-09-14T20:36:52.763Z,16.40
2022-09-14T20:39:22.212Z,16.75
2022-09-14T20:41:54.527Z,19.98
2022-09-14T20:44:23.299Z,16.40
2022-09-14T20:46:51.219Z,18.90
2022-09-14T20:49:21.143Z,19.83
2022-09-14T20:51:48.344Z,18.45
2022-09-14T20:54:17.837Z,16.02
2022-09-14T20:56:46.370Z,14.57
2022-09-14T20:59:18.740Z,17.90
2022-09-14T21:01:49.811Z,15.18
2022-09-14T21:04:19.698Z,16.70
2022-09-14T21:06:49.847Z,16.50
2022-09-14T21:09:18.296Z,17.40
2022-09-14T21:11:46.405Z,15.05
2022-09-14T21:14:15.711Z,17.08
2022-09-14T21:16:46.138Z,14.68
2022-09-14T21:19:14.910Z,18.27
2022-09-14T21:21:43.394Z,18.05
2022-09-14T21:24:13.431Z,17.92
2022-09-14T21:26:42.976Z,14.05
2022-09-14T21:29:14.332Z,17.15
2022-09-14T21:31:42.439Z,15.63
2022-09-14T21:34:11.315Z,18.75
2022-09-14T21:36:44.112Z,18.77
2022-09-14T21:39:14.454Z,19.63
2022-09-14T21:41:43.035Z,19.67
2022-09-14T21:44:10.265Z,20.10
2022-09-14T21:46:37.471Z,16.38
2022-09-14T21:49:04.950Z,16.50
2022-09-14T21:51:34.733Z,19.58
2022-09-14T21:54:08.812Z,17.65
2022-09-14T21:59:09.845Z,18.83
2022-09-14T22:01:37.393Z,21.00
2022-09-14T22:04:06.656Z,21.08
2022-09-14T22:06:35.064Z,22.98
2022-09-14T22:09:02.268Z,19.60
2022-09-14T22:11:32.883Z,16.52
2022-09-14T22:14:07.324Z,16.50
2022-09-14T22:16:37.093Z,18.95
2022-09-14T22:19:13.183Z,16.50
2022-09-14T22:21:40.330Z,14.48
2022-09-14T22:24:11.469Z,15.10
2022-09-14T22:26:40.431Z,16.73
2022-09-14T22:29:09.174Z,15.40
2022-09-14T22:31:38.566Z,15.85
2022-09-14T22:34:06.351Z,14.80
2022-09-14T22:36:34.189Z,15.85
2022-09-14T22:39:01.798Z,18.70
2022-09-14T22:41:29.471Z,16.42
2022-09-14T22:43:56.972Z,18.52
2022-09-14T22:46:25.063Z,21.27
2022-09-14T22:48:53.351Z,21.17
2022-09-14T22:51:25.761Z,21.38
2022-09-14T22:53:53.217Z,19.20
2022-09-14T22:56:23.865Z,22.77
2022-09-14T22:58:51.632Z,21.63
2022-09-14T23:01:25.691Z,20.90
2022-09-14T23:03:59.899Z,21.23
2022-09-14T23:06:29.019Z,23.33
2022-09-14T23:08:56.859Z,21.42
2022-09-14T23:11:24.077Z,15.20
2022-09-14T23:13:51.185Z,13.40
2022-09-14T23:16:20.713Z,18.10
2022-09-14T23:18:52.798Z,17.27
2022-09-14T23:21:20.536Z,18.05
2022-09-14T23:23:55.228Z,14.68
2022-09-14T23:26:23.316Z,15.02
2022-09-14T23:28:59.715Z,15.25
2022-09-14T23:31:28.622Z,15.23
2022-09-14T23:33:58.466Z,17.88
2022-09-14T23:36:26.249Z,15.27
2022-09-14T23:38:54.095Z,15.88
2022-09-14T23:41:22.779Z,17.55
2022-09-14T23:43:50.283Z,16.70
2022-09-14T23:46:19.790Z,17.17
2022-09-14T23:48:47.204Z,15.30
2022-09-14T23:51:14.681Z,19.35
2022-09-14T23:53:43.307Z,19.83
2022-09-14T23:56:11.028Z,20.67
2022-09-14T23:58:38.615Z,18.55
